createdAt,value
2017-08-13T00:00:19.733Z,23.06
2017-08-13T00:02:47.247Z,23.04
2017-08-13T00:05:14.730Z,22.99
2017-08-13T00:07:42.227Z,22.99
2017-08-13T00:10:09.771Z,22.98
2017-08-13T00:12:37.250Z,22.97
2017-08-13T00:15:04.768Z,22.94
2017-08-13T00:17:32.301Z,22.92
2017-08-13T00:19:59.836Z,22.88
2017-08-13T00:22:27.308Z,22.88
2017-08-13T00:24:54.821Z,22.87
2017-08-13T00:27:22.288Z,22.87
2017-08-13T00:29:49.772Z,22.87
2017-08-13T00:32:17.288Z,22.84
2017-08-13T00:34:44.768Z,22.85
2017-08-13T00:37:12.260Z,22.86
2017-08-13T00:39:39.773Z,22.88
2017-08-13T00:42:07.336Z,22.91
2017-08-13T00:44:34.840Z,22.94
2017-08-13T00:47:02.376Z,22.96
2017-08-13T00:49:29.886Z,22.97
2017-08-13T00:51:57.381Z,22.98
2017-08-13T00:54:24.947Z,23.00
2017-08-13T00:56:52.445Z,23.03
2017-08-13T00:59:19.922Z,23.06
2017-08-13T01:01:47.480Z,23.10
2017-08-13T01:04:14.980Z,23.13
2017-08-13T01:06:42.517Z,23.13
2017-08-13T01:09:10.057Z,23.17
2017-08-13T01:11:37.533Z,23.18
2017-08-13T01:14:05.017Z,23.19
2017-08-13T01:16:32.525Z,23.20
2017-08-13T01:19:00.076Z,23.20
2017-08-13T01:21:27.578Z,23.19
2017-08-13T01:23:55.106Z,23.20
2017-08-13T01:26:22.579Z,23.21
2017-08-13T01:28:50.121Z,23.22
2017-08-13T01:31:17.656Z,23.25
2017-08-13T01:33:45.129Z,23.26
2017-08-13T01:36:12.629Z,23.25
2017-08-13T01:38:40.186Z,23.22
2017-08-13T01:41:07.657Z,23.19
2017-08-13T01:43:35.140Z,23.18
2017-08-13T01:46:02.657Z,23.17
2017-08-13T01:48:30.162Z,23.15
2017-08-13T01:50:57.642Z,23.13
2017-08-13T01:53:25.315Z,23.12
2017-08-13T01:55:52.867Z,23.13
2017-08-13T01:58:20.349Z,23.11
2017-08-13T02:00:47.897Z,23.09
2017-08-13T02:03:15.384Z,23.08
2017-08-13T02:05:42.889Z,23.09
2017-08-13T02:08:10.428Z,23.05
2017-08-13T02:10:37.919Z,23.03
2017-08-13T02:13:05.448Z,23.00
2017-08-13T02:15:32.969Z,23.00
2017-08-13T02:18:00.466Z,22.99
2017-08-13T02:20:27.951Z,22.97
2017-08-13T02:22:55.492Z,22.96
2017-08-13T02:25:22.987Z,22.94
2017-08-13T02:27:50.554Z,22.91
2017-08-13T02:30:18.106Z,22.87
2017-08-13T02:32:45.569Z,22.85
2017-08-13T02:35:13.053Z,22.84
2017-08-13T02:37:40.557Z,22.82
2017-08-13T02:40:08.148Z,22.82
2017-08-13T02:42:35.704Z,22.81
2017-08-13T02:45:03.230Z,22.81
2017-08-13T02:47:30.792Z,22.80
2017-08-13T02:49:58.296Z,22.77
2017-08-13T02:52:25.823Z,22.74
2017-08-13T02:54:53.294Z,22.72
2017-08-13T02:57:20.761Z,22.70
2017-08-13T02:59:48.297Z,22.67
